sensor_id;sensor_type;location;lat;lon;timestamp;temperature;humidity
59881;DHT22;45751;51.380;10.326;2023-12-28T00:00:43;6.70;79.30
59881;DHT22;45751;51.380;10.326;2023-12-28T00:03:08;6.80;78.10
59881;DHT22;45751;51.380;10.326;2023-12-28T00:05:34;6.80;78.90
59881;DHT22;45751;51.380;10.326;2023-12-28T00:08:00;6.80;77.70
59881;DHT22;45751;51.380;10.326;2023-12-28T00:10:26;6.80;77.00
59881;DHT22;45751;51.380;10.326;2023-12-28T00:12:54;6.80;76.30
59881;DHT22;45751;51.380;10.326;2023-12-28T00:15:20;6.90;75.50
59881;DHT22;45751;51.380;10.326;2023-12-28T00:17:45;6.90;75.00
59881;DHT22;45751;51.380;10.326;2023-12-28T00:20:12;6.90;73.90
59881;DHT22;45751;51.380;10.326;2023-12-28T00:22:37;7.00;74.30
59881;DHT22;45751;51.380;10.326;2023-12-28T00:25:04;7.00;74.30
59881;DHT22;45751;51.380;10.326;2023-12-28T00:27:30;7.00;73.70
59881;DHT22;45751;51.380;10.326;2023-12-28T00:29:57;7.00;73.70
59881;DHT22;45751;51.380;10.326;2023-12-28T00:32:23;7.00;73.50
59881;DHT22;45751;51.380;10.326;2023-12-28T00:34:49;7.00;73.90
59881;DHT22;45751;51.380;10.326;2023-12-28T00:37:14;7.10;73.20
59881;DHT22;45751;51.380;10.326;2023-12-28T00:39:40;7.10;73.10
59881;DHT22;45751;51.380;10.326;2023-12-28T00:42:06;6.90;73.10
59881;DHT22;45751;51.380;10.326;2023-12-28T00:44:32;7.00;72.90
59881;DHT22;45751;51.380;10.326;2023-12-28T00:46:58;7.10;72.90
59881;DHT22;45751;51.380;10.326;2023-12-28T00:49:23;7.00;72.30
59881;DHT22;45751;51.380;10.326;2023-12-28T00:51:49;7.20;72.70
59881;DHT22;45751;51.380;10.326;2023-12-28T00:54:15;7.10;71.90
59881;DHT22;45751;51.380;10.326;2023-12-28T00:56:40;7.20;72.10
59881;DHT22;45751;51.380;10.326;2023-12-28T00:59:06;7.20;72.10
59881;DHT22;45751;51.380;10.326;2023-12-28T01:01:32;7.20;72.40
59881;DHT22;45751;51.380;10.326;2023-12-28T01:03:58;7.20;72.50
59881;DHT22;45751;51.380;10.326;2023-12-28T01:06:24;7.20;72.80
59881;DHT22;45751;51.380;10.326;2023-12-28T01:08:57;7.30;72.80
59881;DHT22;45751;51.380;10.326;2023-12-28T01:11:23;7.20;72.70
59881;DHT22;45751;51.380;10.326;2023-12-28T01:13:48;7.30;72.80
59881;DHT22;45751;51.380;10.326;2023-12-28T01:16:14;7.30;72.80
59881;DHT22;45751;51.380;10.326;2023-12-28T01:18:40;7.30;73.30
59881;DHT22;45751;51.380;10.326;2023-12-28T01:21:06;7.30;73.20
59881;DHT22;45751;51.380;10.326;2023-12-28T01:23:32;7.30;73.30
59881;DHT22;45751;51.380;10.326;2023-12-28T01:25:58;7.30;73.70
59881;DHT22;45751;51.380;10.326;2023-12-28T01:28:24;7.30;73.20
59881;DHT22;45751;51.380;10.326;2023-12-28T01:30:50;7.30;74.10
59881;DHT22;45751;51.380;10.326;2023-12-28T01:33:16;7.40;73.90
59881;DHT22;45751;51.380;10.326;2023-12-28T01:35:41;7.40;74.30
59881;DHT22;45751;51.380;10.326;2023-12-28T01:38:08;7.40;74.20
59881;DHT22;45751;51.380;10.326;2023-12-28T01:40:34;7.40;74.70
59881;DHT22;45751;51.380;10.326;2023-12-28T01:43:00;7.40;74.80
59881;DHT22;45751;51.380;10.326;2023-12-28T01:45:25;7.50;74.80
59881;DHT22;45751;51.380;10.326;2023-12-28T01:47:53;7.50;75.10
59881;DHT22;45751;51.380;10.326;2023-12-28T01:50:20;7.60;75.30
59881;DHT22;45751;51.380;10.326;2023-12-28T01:52:47;7.60;75.10
59881;DHT22;45751;51.380;10.326;2023-12-28T01:55:13;7.60;75.00
59881;DHT22;45751;51.380;10.326;2023-12-28T01:57:39;7.60;75.20
59881;DHT22;45751;51.380;10.326;2023-12-28T02:00:06;7.60;76.00
59881;DHT22;45751;51.380;10.326;2023-12-28T02:02:38;7.60;76.50
59881;DHT22;45751;51.380;10.326;2023-12-28T02:05:05;7.60;78.70
59881;DHT22;45751;51.380;10.326;2023-12-28T02:07:32;7.50;80.40
59881;DHT22;45751;51.380;10.326;2023-12-28T02:09:58;7.60;80.90
59881;DHT22;45751;51.380;10.326;2023-12-28T02:12:23;7.50;82.80
59881;DHT22;45751;51.380;10.326;2023-12-28T02:14:49;7.50;83.20
59881;DHT22;45751;51.380;10.326;2023-12-28T02:17:39;7.50;85.20
59881;DHT22;45751;51.380;10.326;2023-12-28T02:20:07;7.50;86.40
59881;DHT22;45751;51.380;10.326;2023-12-28T02:22:34;7.40;88.70
59881;DHT22;45751;51.380;10.326;2023-12-28T02:27:26;7.40;90.50
59881;DHT22;45751;51.380;10.326;2023-12-28T02:29:52;7.30;91.00
59881;DHT22;45751;51.380;10.326;2023-12-28T02:32:24;7.30;91.90
59881;DHT22;45751;51.380;10.326;2023-12-28T02:34:55;7.30;92.30
59881;DHT22;45751;51.380;10.326;2023-12-28T02:37:22;7.20;92.80
59881;DHT22;45751;51.380;10.326;2023-12-28T02:39:49;7.20;92.70
59881;DHT22;45751;51.380;10.326;2023-12-28T02:42:15;7.20;92.80
59881;DHT22;45751;51.380;10.326;2023-12-28T02:44:41;7.20;92.60
59881;DHT22;45751;51.380;10.326;2023-12-28T02:47:08;7.10;92.90
59881;DHT22;45751;51.380;10.326;2023-12-28T02:49:33;7.10;93.30
59881;DHT22;45751;51.380;10.326;2023-12-28T02:51:59;7.10;93.80
59881;DHT22;45751;51.380;10.326;2023-12-28T02:54:26;7.00;94.20
59881;DHT22;45751;51.380;10.326;2023-12-28T02:56:51;7.00;94.90
59881;DHT22;45751;51.380;10.326;2023-12-28T02:59:17;7.00;95.00
59881;DHT22;45751;51.380;10.326;2023-12-28T03:01:43;7.00;95.10
59881;DHT22;45751;51.380;10.326;2023-12-28T03:04:09;6.90;95.40
59881;DHT22;45751;51.380;10.326;2023-12-28T03:06:35;6.90;95.30
59881;DHT22;45751;51.380;10.326;2023-12-28T03:09:01;6.90;95.20
59881;DHT22;45751;51.380;10.326;2023-12-28T03:11:26;6.90;95.20
59881;DHT22;45751;51.380;10.326;2023-12-28T03:13:54;7.00;95.20
59881;DHT22;45751;51.380;10.326;2023-12-28T03:16:19;7.00;95.00
59881;DHT22;45751;51.380;10.326;2023-12-28T03:18:45;7.00;95.20
59881;DHT22;45751;51.380;10.326;2023-12-28T03:21:11;7.10;95.10
59881;DHT22;45751;51.380;10.326;2023-12-28T03:23:36;7.10;95.10
59881;DHT22;45751;51.380;10.326;2023-12-28T03:26:03;7.10;94.90
59881;DHT22;45751;51.380;10.326;2023-12-28T03:28:29;7.10;94.90
59881;DHT22;45751;51.380;10.326;2023-12-28T03:30:55;7.10;95.00
59881;DHT22;45751;51.380;10.326;2023-12-28T03:33:21;7.20;94.80
59881;DHT22;45751;51.380;10.326;2023-12-28T03:35:46;7.20;94.50
59881;DHT22;45751;51.380;10.326;2023-12-28T03:38:13;7.20;94.90
59881;DHT22;45751;51.380;10.326;2023-12-28T03:40:39;7.30;94.40
59881;DHT22;45751;51.380;10.326;2023-12-28T03:43:05;7.30;94.30
59881;DHT22;45751;51.380;10.326;2023-12-28T03:45:31;7.30;94.20
59881;DHT22;45751;51.380;10.326;2023-12-28T03:47:56;7.30;94.10
59881;DHT22;45751;51.380;10.326;2023-12-28T03:50:23;7.30;94.10
59881;DHT22;45751;51.380;10.326;2023-12-28T03:52:48;7.30;94.00
59881;DHT22;45751;51.380;10.326;2023-12-28T03:55:14;7.30;93.90
59881;DHT22;45751;51.380;10.326;2023-12-28T03:57:40;7.30;94.00
59881;DHT22;45751;51.380;10.326;2023-12-28T04:00:08;7.30;94.00
59881;DHT22;45751;51.380;10.326;2023-12-28T04:02:38;7.30;93.90
59881;DHT22;45751;51.380;10.326;2023-12-28T04:05:04;7.30;94.10
59881;DHT22;45751;51.380;10.326;2023-12-28T04:07:30;7.30;94.30
59881;DHT22;45751;51.380;10.326;2023-12-28T04:09:55;7.30;94.40
59881;DHT22;45751;51.380;10.326;2023-12-28T04:12:21;7.30;94.50
59881;DHT22;45751;51.380;10.326;2023-12-28T04:14:47;7.30;94.70
59881;DHT22;45751;51.380;10.326;2023-12-28T04:17:13;7.20;94.70
59881;DHT22;45751;51.380;10.326;2023-12-28T04:19:38;7.20;94.90
59881;DHT22;45751;51.380;10.326;2023-12-28T04:22:04;7.20;95.00
59881;DHT22;45751;51.380;10.326;2023-12-28T04:24:30;7.20;95.20
59881;DHT22;45751;51.380;10.326;2023-12-28T04:26:56;7.20;95.20
59881;DHT22;45751;51.380;10.326;2023-12-28T04:29:22;7.20;95.50
59881;DHT22;45751;51.380;10.326;2023-12-28T04:31:48;7.30;95.60
59881;DHT22;45751;51.380;10.326;2023-12-28T04:34:13;7.20;95.90
59881;DHT22;45751;51.380;10.326;2023-12-28T04:36:40;7.20;96.10
59881;DHT22;45751;51.380;10.326;2023-12-28T04:39:07;7.20;96.40
59881;DHT22;45751;51.380;10.326;2023-12-28T04:41:33;7.20;96.50
59881;DHT22;45751;51.380;10.326;2023-12-28T04:43:59;7.20;96.70
59881;DHT22;45751;51.380;10.326;2023-12-28T04:46:24;7.20;97.30
59881;DHT22;45751;51.380;10.326;2023-12-28T04:48:50;7.20;97.60
59881;DHT22;45751;51.380;10.326;2023-12-28T04:51:16;7.10;98.10
59881;DHT22;45751;51.380;10.326;2023-12-28T04:53:41;7.10;98.50
59881;DHT22;45751;51.380;10.326;2023-12-28T04:56:09;7.10;98.80
59881;DHT22;45751;51.380;10.326;2023-12-28T04:58:35;7.10;99.10
59881;DHT22;45751;51.380;10.326;2023-12-28T05:01:04;7.20;99.40
59881;DHT22;45751;51.380;10.326;2023-12-28T05:03:29;7.20;99.80
59881;DHT22;45751;51.380;10.326;2023-12-28T05:05:55;7.20;99.90
59881;DHT22;45751;51.380;10.326;2023-12-28T05:08:21;7.20;99.90
59881;DHT22;45751;51.380;10.326;2023-12-28T05:10:47;7.20;99.90
59881;DHT22;45751;51.380;10.326;2023-12-28T05:13:12;7.20;99.90
59881;DHT22;45751;51.380;10.326;2023-12-28T05:15:38;7.20;99.90
59881;DHT22;45751;51.380;10.326;2023-12-28T05:18:04;7.20;99.90
59881;DHT22;45751;51.380;10.326;2023-12-28T05:20:32;7.10;99.90
59881;DHT22;45751;51.380;10.326;2023-12-28T05:22:57;7.10;99.90
59881;DHT22;45751;51.380;10.326;2023-12-28T05:25:23;7.20;99.90
59881;DHT22;45751;51.380;10.326;2023-12-28T05:27:49;7.20;99.90
59881;DHT22;45751;51.380;10.326;2023-12-28T05:30:14;7.20;99.90
59881;DHT22;45751;51.380;10.326;2023-12-28T05:32:40;7.20;99.90
59881;DHT22;45751;51.380;10.326;2023-12-28T05:35:06;7.10;99.90
59881;DHT22;45751;51.380;10.326;2023-12-28T05:37:32;7.10;99.90
59881;DHT22;45751;51.380;10.326;2023-12-28T05:39:58;7.20;99.90
59881;DHT22;45751;51.380;10.326;2023-12-28T05:42:23;7.10;99.90
59881;DHT22;45751;51.380;10.326;2023-12-28T05:44:49;7.10;99.90
59881;DHT22;45751;51.380;10.326;2023-12-28T05:47:15;7.10;99.90
59881;DHT22;45751;51.380;10.326;2023-12-28T05:49:40;7.10;99.90
59881;DHT22;45751;51.380;10.326;2023-12-28T05:52:07;7.10;99.90
59881;DHT22;45751;51.380;10.326;2023-12-28T05:54:33;7.00;99.90
59881;DHT22;45751;51.380;10.326;2023-12-28T05:56:59;7.10;99.90
59881;DHT22;45751;51.380;10.326;2023-12-28T05:59:24;6.90;99.90
59881;DHT22;45751;51.380;10.326;2023-12-28T06:01:51;7.00;99.90
59881;DHT22;45751;51.380;10.326;2023-12-28T06:04:17;7.00;99.90
59881;DHT22;45751;51.380;10.326;2023-12-28T06:06:43;6.90;99.90
59881;DHT22;45751;51.380;10.326;2023-12-28T06:09:09;7.00;99.90
59881;DHT22;45751;51.380;10.326;2023-12-28T06:11:35;7.00;99.90
59881;DHT22;45751;51.380;10.326;2023-12-28T06:14:00;7.00;99.90
59881;DHT22;45751;51.380;10.326;2023-12-28T06:16:27;7.00;99.90
59881;DHT22;45751;51.380;10.326;2023-12-28T06:18:52;7.00;99.90
59881;DHT22;45751;51.380;10.326;2023-12-28T06:21:18;6.90;99.90
59881;DHT22;45751;51.380;10.326;2023-12-28T06:23:44;6.90;99.90
59881;DHT22;45751;51.380;10.326;2023-12-28T06:26:09;6.90;99.90
59881;DHT22;45751;51.380;10.326;2023-12-28T06:28:35;6.90;99.90
59881;DHT22;45751;51.380;10.326;2023-12-28T06:31:01;6.90;99.90
59881;DHT22;45751;51.380;10.326;2023-12-28T06:33:28;6.90;99.90
59881;DHT22;45751;51.380;10.326;2023-12-28T06:35:54;6.90;99.90
59881;DHT22;45751;51.380;10.326;2023-12-28T06:38:20;6.90;99.90
59881;DHT22;45751;51.380;10.326;2023-12-28T06:40:46;6.90;99.90
59881;DHT22;45751;51.380;10.326;2023-12-28T06:43:12;6.90;99.90
59881;DHT22;45751;51.380;10.326;2023-12-28T06:45:37;6.90;99.90
59881;DHT22;45751;51.380;10.326;2023-12-28T06:48:04;6.80;99.90
59881;DHT22;45751;51.380;10.326;2023-12-28T06:50:30;6.80;99.90
59881;DHT22;45751;51.380;10.326;2023-12-28T06:52:56;6.80;99.90
59881;DHT22;45751;51.380;10.326;2023-12-28T06:55:22;6.80;99.90
59881;DHT22;45751;51.380;10.326;2023-12-28T06:57:48;6.80;99.90
59881;DHT22;45751;51.380;10.326;2023-12-28T07:00:14;6.80;99.90
59881;DHT22;45751;51.380;10.326;2023-12-28T07:02:39;6.80;99.90
59881;DHT22;45751;51.380;10.326;2023-12-28T07:05:05;6.70;99.90
59881;DHT22;45751;51.380;10.326;2023-12-28T07:07:31;6.80;99.90
59881;DHT22;45751;51.380;10.326;2023-12-28T07:09:57;6.80;99.90
59881;DHT22;45751;51.380;10.326;2023-12-28T07:12:23;6.80;99.90
59881;DHT22;45751;51.380;10.326;2023-12-28T07:14:49;6.80;99.90
59881;DHT22;45751;51.380;10.326;2023-12-28T07:17:15;6.80;99.90
59881;DHT22;45751;51.380;10.326;2023-12-28T07:19:43;6.80;99.90
59881;DHT22;45751;51.380;10.326;2023-12-28T07:22:09;6.80;99.90
59881;DHT22;45751;51.380;10.326;2023-12-28T07:24:35;6.80;99.90
59881;DHT22;45751;51.380;10.326;2023-12-28T07:27:01;6.80;99.90
59881;DHT22;45751;51.380;10.326;2023-12-28T07:29:26;6.80;99.90
59881;DHT22;45751;51.380;10.326;2023-12-28T07:31:53;6.90;99.90
59881;DHT22;45751;51.380;10.326;2023-12-28T07:34:19;6.80;99.90
59881;DHT22;45751;51.380;10.326;2023-12-28T07:36:45;6.80;99.90
59881;DHT22;45751;51.380;10.326;2023-12-28T07:39:11;6.80;99.90
59881;DHT22;45751;51.380;10.326;2023-12-28T07:41:38;6.80;99.90
59881;DHT22;45751;51.380;10.326;2023-12-28T07:44:04;6.80;99.90
59881;DHT22;45751;51.380;10.326;2023-12-28T07:46:30;6.80;99.90
59881;DHT22;45751;51.380;10.326;2023-12-28T07:48:55;6.90;99.90
59881;DHT22;45751;51.380;10.326;2023-12-28T07:51:21;6.80;99.90
59881;DHT22;45751;51.380;10.326;2023-12-28T07:53:47;6.80;99.90
59881;DHT22;45751;51.380;10.326;2023-12-28T07:56:13;6.80;99.90
59881;DHT22;45751;51.380;10.326;2023-12-28T07:58:39;6.80;99.90
59881;DHT22;45751;51.380;10.326;2023-12-28T08:01:10;6.80;99.90
59881;DHT22;45751;51.380;10.326;2023-12-28T08:03:36;6.80;99.90
59881;DHT22;45751;51.380;10.326;2023-12-28T08:06:02;6.80;99.90
59881;DHT22;45751;51.380;10.326;2023-12-28T08:08:28;6.80;99.90
59881;DHT22;45751;51.380;10.326;2023-12-28T08:10:53;6.70;99.90
59881;DHT22;45751;51.380;10.326;2023-12-28T08:13:19;6.80;99.90
59881;DHT22;45751;51.380;10.326;2023-12-28T08:15:45;6.80;99.90
59881;DHT22;45751;51.380;10.326;2023-12-28T08:18:12;6.80;99.90
59881;DHT22;45751;51.380;10.326;2023-12-28T08:20:38;6.80;99.90
59881;DHT22;45751;51.380;10.326;2023-12-28T08:23:03;6.80;99.90
59881;DHT22;45751;51.380;10.326;2023-12-28T08:25:29;6.80;99.90
59881;DHT22;45751;51.380;10.326;2023-12-28T08:27:55;6.80;99.90
59881;DHT22;45751;51.380;10.326;2023-12-28T08:30:21;6.80;99.90
59881;DHT22;45751;51.380;10.326;2023-12-28T08:32:47;6.80;99.90
59881;DHT22;45751;51.380;10.326;2023-12-28T08:35:12;6.80;99.90
59881;DHT22;45751;51.380;10.326;2023-12-28T08:37:38;6.80;99.90
59881;DHT22;45751;51.380;10.326;2023-12-28T08:40:04;6.80;99.90
59881;DHT22;45751;51.380;10.326;2023-12-28T08:42:30;6.80;99.90
59881;DHT22;45751;51.380;10.326;2023-12-28T08:44:56;6.80;99.90
59881;DHT22;45751;51.380;10.326;2023-12-28T08:47:21;6.80;99.90
59881;DHT22;45751;51.380;10.326;2023-12-28T08:49:47;6.80;99.90
59881;DHT22;45751;51.380;10.326;2023-12-28T08:52:13;6.80;99.90
59881;DHT22;45751;51.380;10.326;2023-12-28T08:54:40;6.80;99.90
59881;DHT22;45751;51.380;10.326;2023-12-28T08:57:06;6.80;99.90
59881;DHT22;45751;51.380;10.326;2023-12-28T08:59:36;6.80;99.90
59881;DHT22;45751;51.380;10.326;2023-12-28T09:02:02;6.80;99.90
59881;DHT22;45751;51.380;10.326;2023-12-28T09:04:27;6.80;99.90
59881;DHT22;45751;51.380;10.326;2023-12-28T09:06:53;6.80;99.90
59881;DHT22;45751;51.380;10.326;2023-12-28T09:09:19;6.80;99.90
59881;DHT22;45751;51.380;10.326;2023-12-28T09:11:45;6.80;99.90
59881;DHT22;45751;51.380;10.326;2023-12-28T09:14:10;6.80;99.90
59881;DHT22;45751;51.380;10.326;2023-12-28T09:16:36;6.80;99.90
59881;DHT22;45751;51.380;10.326;2023-12-28T09:19:02;6.80;99.90
59881;DHT22;45751;51.380;10.326;2023-12-28T09:21:27;6.80;99.90
59881;DHT22;45751;51.380;10.326;2023-12-28T09:23:53;6.80;99.90
59881;DHT22;45751;51.380;10.326;2023-12-28T09:26:19;6.80;99.90
59881;DHT22;45751;51.380;10.326;2023-12-28T09:28:44;6.90;99.90
59881;DHT22;45751;51.380;10.326;2023-12-28T09:31:10;6.80;99.90
59881;DHT22;45751;51.380;10.326;2023-12-28T09:33:36;6.80;99.90
59881;DHT22;45751;51.380;10.326;2023-12-28T09:36:05;6.80;99.90
59881;DHT22;45751;51.380;10.326;2023-12-28T09:38:31;6.80;99.90
59881;DHT22;45751;51.380;10.326;2023-12-28T09:40:58;6.80;99.90
59881;DHT22;45751;51.380;10.326;2023-12-28T09:43:36;6.90;99.90
59881;DHT22;45751;51.380;10.326;2023-12-28T09:46:07;6.90;99.90
59881;DHT22;45751;51.380;10.326;2023-12-28T09:48:40;6.80;99.90
59881;DHT22;45751;51.380;10.326;2023-12-28T09:51:06;6.90;99.90
59881;DHT22;45751;51.380;10.326;2023-12-28T09:53:32;6.90;99.90
59881;DHT22;45751;51.380;10.326;2023-12-28T09:55:57;7.00;99.90
59881;DHT22;45751;51.380;10.326;2023-12-28T09:58:24;7.00;99.90
59881;DHT22;45751;51.380;10.326;2023-12-28T10:00:51;7.00;99.90
59881;DHT22;45751;51.380;10.326;2023-12-28T10:03:17;7.10;99.90
59881;DHT22;45751;51.380;10.326;2023-12-28T10:05:44;7.10;99.90
59881;DHT22;45751;51.380;10.326;2023-12-28T10:08:15;7.20;99.90
59881;DHT22;45751;51.380;10.326;2023-12-28T10:10:42;7.10;99.90
59881;DHT22;45751;51.380;10.326;2023-12-28T10:13:08;7.20;99.90
59881;DHT22;45751;51.380;10.326;2023-12-28T10:15:38;7.30;99.90
59881;DHT22;45751;51.380;10.326;2023-12-28T10:18:04;7.30;99.90
59881;DHT22;45751;51.380;10.326;2023-12-28T10:20:31;7.30;99.90
59881;DHT22;45751;51.380;10.326;2023-12-28T10:22:58;7.40;99.90
59881;DHT22;45751;51.380;10.326;2023-12-28T10:25:25;7.40;99.90
59881;DHT22;45751;51.380;10.326;2023-12-28T10:27:51;7.40;99.90
59881;DHT22;45751;51.380;10.326;2023-12-28T10:30:20;7.50;99.90
59881;DHT22;45751;51.380;10.326;2023-12-28T10:32:46;7.50;99.90
59881;DHT22;45751;51.380;10.326;2023-12-28T10:35:12;7.40;99.90
59881;DHT22;45751;51.380;10.326;2023-12-28T10:37:42;7.50;99.90
59881;DHT22;45751;51.380;10.326;2023-12-28T10:40:12;7.50;99.90
59881;DHT22;45751;51.380;10.326;2023-12-28T10:42:52;7.60;99.90
59881;DHT22;45751;51.380;10.326;2023-12-28T10:45:18;7.70;99.90
59881;DHT22;45751;51.380;10.326;2023-12-28T10:48:06;7.70;99.90
59881;DHT22;45751;51.380;10.326;2023-12-28T10:50:39;7.70;99.90
59881;DHT22;45751;51.380;10.326;2023-12-28T10:56:28;7.80;99.90
59881;DHT22;45751;51.380;10.326;2023-12-28T11:01:39;7.80;99.90
59881;DHT22;45751;51.380;10.326;2023-12-28T11:06:56;7.90;99.90
59881;DHT22;45751;51.380;10.326;2023-12-28T11:09:24;7.90;99.90
59881;DHT22;45751;51.380;10.326;2023-12-28T11:11:53;8.00;99.90
59881;DHT22;45751;51.380;10.326;2023-12-28T11:14:21;8.00;99.90
59881;DHT22;45751;51.380;10.326;2023-12-28T11:16:48;8.00;99.90
59881;DHT22;45751;51.380;10.326;2023-12-28T11:19:14;8.00;99.90
59881;DHT22;45751;51.380;10.326;2023-12-28T11:21:40;8.00;99.90
59881;DHT22;45751;51.380;10.326;2023-12-28T11:24:07;8.00;99.90
59881;DHT22;45751;51.380;10.326;2023-12-28T11:26:33;8.00;99.90
59881;DHT22;45751;51.380;10.326;2023-12-28T11:29:02;8.00;99.90
59881;DHT22;45751;51.380;10.326;2023-12-28T11:31:32;8.00;99.90
59881;DHT22;45751;51.380;10.326;2023-12-28T11:33:59;8.10;99.70
59881;DHT22;45751;51.380;10.326;2023-12-28T11:36:32;8.10;99.70
59881;DHT22;45751;51.380;10.326;2023-12-28T11:39:01;8.10;99.50
59881;DHT22;45751;51.380;10.326;2023-12-28T11:41:30;8.10;99.10
59881;DHT22;45751;51.380;10.326;2023-12-28T11:43:55;8.10;99.40
59881;DHT22;45751;51.380;10.326;2023-12-28T11:46:24;8.20;98.80
59881;DHT22;45751;51.380;10.326;2023-12-28T11:48:51;8.20;98.70
59881;DHT22;45751;51.380;10.326;2023-12-28T11:51:17;8.20;98.60
59881;DHT22;45751;51.380;10.326;2023-12-28T11:53:43;8.30;98.60
59881;DHT22;45751;51.380;10.326;2023-12-28T11:56:15;8.30;98.50
59881;DHT22;45751;51.380;10.326;2023-12-28T11:58:41;8.20;98.30
59881;DHT22;45751;51.380;10.326;2023-12-28T12:01:09;8.30;98.30
59881;DHT22;45751;51.380;10.326;2023-12-28T12:03:35;8.30;98.20
59881;DHT22;45751;51.380;10.326;2023-12-28T12:06:01;8.40;98.10
59881;DHT22;45751;51.380;10.326;2023-12-28T12:08:26;8.50;97.60
59881;DHT22;45751;51.380;10.326;2023-12-28T12:11:02;8.50;97.80
59881;DHT22;45751;51.380;10.326;2023-12-28T12:13:30;8.50;97.50
59881;DHT22;45751;51.380;10.326;2023-12-28T12:15:56;8.50;97.20
59881;DHT22;45751;51.380;10.326;2023-12-28T12:18:23;8.60;97.20
59881;DHT22;45751;51.380;10.326;2023-12-28T12:20:49;8.70;96.60
59881;DHT22;45751;51.380;10.326;2023-12-28T12:23:15;8.70;96.30
59881;DHT22;45751;51.380;10.326;2023-12-28T12:25:41;8.70;96.20
59881;DHT22;45751;51.380;10.326;2023-12-28T12:28:07;8.90;96.30
59881;DHT22;45751;51.380;10.326;2023-12-28T12:30:34;8.90;96.20
59881;DHT22;45751;51.380;10.326;2023-12-28T12:33:00;8.80;96.10
59881;DHT22;45751;51.380;10.326;2023-12-28T12:35:26;8.80;95.90
59881;DHT22;45751;51.380;10.326;2023-12-28T12:37:52;8.80;96.00
59881;DHT22;45751;51.380;10.326;2023-12-28T12:40:20;8.80;95.80
59881;DHT22;45751;51.380;10.326;2023-12-28T12:42:55;8.80;96.40
59881;DHT22;45751;51.380;10.326;2023-12-28T12:45:21;8.80;95.90
59881;DHT22;45751;51.380;10.326;2023-12-28T12:47:47;8.80;95.90
59881;DHT22;45751;51.380;10.326;2023-12-28T12:50:15;8.80;96.00
59881;DHT22;45751;51.380;10.326;2023-12-28T12:52:42;8.80;95.80
59881;DHT22;45751;51.380;10.326;2023-12-28T12:55:12;8.80;95.70
59881;DHT22;45751;51.380;10.326;2023-12-28T12:57:39;8.80;95.80
59881;DHT22;45751;51.380;10.326;2023-12-28T13:00:05;8.70;95.70
59881;DHT22;45751;51.380;10.326;2023-12-28T13:02:34;8.80;95.60
59881;DHT22;45751;51.380;10.326;2023-12-28T13:05:02;8.80;96.10
59881;DHT22;45751;51.380;10.326;2023-12-28T13:07:29;8.80;95.50
59881;DHT22;45751;51.380;10.326;2023-12-28T13:09:55;8.80;95.30
59881;DHT22;45751;51.380;10.326;2023-12-28T13:12:21;8.80;95.30
59881;DHT22;45751;51.380;10.326;2023-12-28T13:14:47;8.80;95.30
59881;DHT22;45751;51.380;10.326;2023-12-28T13:17:12;8.70;95.20
59881;DHT22;45751;51.380;10.326;2023-12-28T13:19:38;8.90;95.10
59881;DHT22;45751;51.380;10.326;2023-12-28T13:22:04;8.90;95.00
59881;DHT22;45751;51.380;10.326;2023-12-28T13:24:31;8.90;95.10
59881;DHT22;45751;51.380;10.326;2023-12-28T13:26:57;8.90;95.20
59881;DHT22;45751;51.380;10.326;2023-12-28T13:29:22;8.90;94.80
59881;DHT22;45751;51.380;10.326;2023-12-28T13:31:48;8.90;94.70
59881;DHT22;45751;51.380;10.326;2023-12-28T13:34:18;8.90;94.60
59881;DHT22;45751;51.380;10.326;2023-12-28T13:36:45;8.90;94.50
59881;DHT22;45751;51.380;10.326;2023-12-28T13:39:11;8.80;94.60
59881;DHT22;45751;51.380;10.326;2023-12-28T13:41:40;8.90;94.60
59881;DHT22;45751;51.380;10.326;2023-12-28T13:44:06;8.90;94.50
59881;DHT22;45751;51.380;10.326;2023-12-28T13:46:36;8.90;94.50
59881;DHT22;45751;51.380;10.326;2023-12-28T13:49:02;8.90;94.50
59881;DHT22;45751;51.380;10.326;2023-12-28T13:51:30;8.80;95.00
59881;DHT22;45751;51.380;10.326;2023-12-28T13:53:56;8.70;94.60
59881;DHT22;45751;51.380;10.326;2023-12-28T13:56:21;8.80;94.60
59881;DHT22;45751;51.380;10.326;2023-12-28T13:58:47;8.70;94.60
59881;DHT22;45751;51.380;10.326;2023-12-28T14:01:13;8.70;94.50
59881;DHT22;45751;51.380;10.326;2023-12-28T14:03:39;8.70;94.50
59881;DHT22;45751;51.380;10.326;2023-12-28T14:06:05;8.70;94.50
59881;DHT22;45751;51.380;10.326;2023-12-28T14:08:31;8.70;94.40
59881;DHT22;45751;51.380;10.326;2023-12-28T14:10:56;8.70;94.30
59881;DHT22;45751;51.380;10.326;2023-12-28T14:13:22;8.70;94.40
59881;DHT22;45751;51.380;10.326;2023-12-28T14:15:48;8.60;94.40
59881;DHT22;45751;51.380;10.326;2023-12-28T14:18:14;8.70;94.30
59881;DHT22;45751;51.380;10.326;2023-12-28T14:20:39;8.70;94.10
59881;DHT22;45751;51.380;10.326;2023-12-28T14:23:05;8.70;93.80
59881;DHT22;45751;51.380;10.326;2023-12-28T14:25:31;8.70;94.10
59881;DHT22;45751;51.380;10.326;2023-12-28T14:27:57;8.70;94.00
59881;DHT22;45751;51.380;10.326;2023-12-28T14:30:23;8.70;94.10
59881;DHT22;45751;51.380;10.326;2023-12-28T14:32:50;8.70;94.20
59881;DHT22;45751;51.380;10.326;2023-12-28T14:35:16;8.70;94.40
59881;DHT22;45751;51.380;10.326;2023-12-28T14:37:44;8.60;94.60
59881;DHT22;45751;51.380;10.326;2023-12-28T14:40:10;8.60;94.70
59881;DHT22;45751;51.380;10.326;2023-12-28T14:42:40;8.60;94.80
59881;DHT22;45751;51.380;10.326;2023-12-28T14:45:06;8.60;94.80
59881;DHT22;45751;51.380;10.326;2023-12-28T14:47:33;8.60;94.90
59881;DHT22;45751;51.380;10.326;2023-12-28T14:49:58;8.60;95.00
59881;DHT22;45751;51.380;10.326;2023-12-28T14:52:25;8.60;95.00
59881;DHT22;45751;51.380;10.326;2023-12-28T14:54:51;8.50;95.10
59881;DHT22;45751;51.380;10.326;2023-12-28T14:57:17;8.60;95.30
59881;DHT22;45751;51.380;10.326;2023-12-28T14:59:42;8.50;95.40
59881;DHT22;45751;51.380;10.326;2023-12-28T15:02:08;8.50;95.40
59881;DHT22;45751;51.380;10.326;2023-12-28T15:04:34;8.50;95.30
59881;DHT22;45751;51.380;10.326;2023-12-28T15:07:00;8.50;95.80
59881;DHT22;45751;51.380;10.326;2023-12-28T15:09:26;8.30;95.50
59881;DHT22;45751;51.380;10.326;2023-12-28T15:11:51;8.60;95.70
59881;DHT22;45751;51.380;10.326;2023-12-28T15:14:18;8.40;95.70
59881;DHT22;45751;51.380;10.326;2023-12-28T15:16:44;8.40;95.70
59881;DHT22;45751;51.380;10.326;2023-12-28T15:19:11;8.40;95.80
59881;DHT22;45751;51.380;10.326;2023-12-28T15:21:37;8.40;95.90
59881;DHT22;45751;51.380;10.326;2023-12-28T15:24:04;8.40;95.90
59881;DHT22;45751;51.380;10.326;2023-12-28T15:26:29;8.40;95.90
59881;DHT22;45751;51.380;10.326;2023-12-28T15:28:55;8.40;95.80
59881;DHT22;45751;51.380;10.326;2023-12-28T15:31:21;8.30;95.90
59881;DHT22;45751;51.380;10.326;2023-12-28T15:33:47;8.30;95.90
59881;DHT22;45751;51.380;10.326;2023-12-28T15:36:13;8.40;95.90